ソウル/仁川 の空港の天気 - METARとTAF

仁川国際空港 ( RKSI / ICN ) - 韓国 仁川広域市 (ソウル特別市近郊)
飛行場実況気象(Metar)
観測時間07/29 11:30 KST (07/29 02:30 UTC)
風向・風速北北西 2m/s
視程10km以上
天気現象
なし
気温31℃
湿度66%
気圧1002hPa
METARRKSI 290230Z 33004KT 250V360 CAVOK 31/24 Q1002 NOSIG
過去の天気等 Google飛行場航空写真 Wunderground天気予報

過去48時間のMETAR

飛行場予報(TAF)
発表時間: 7/29 08:00 KST (7/28 23:00 UTC)
予報対象時間: 29日9時 KST ~ 30日15時 KST
風向・風速南 3m/s
視程6000m
全天の4割程度の雲 雲底高度 910m
29日12時 KST ~ 29日13時 KST に徐々に
風向・風速西北西 4m/s
視程10km以上
29日14時 KST ~ 29日16時 KST に一時的に
視程6000m
天気現象弱いしゅう雨
全天の4割程度の積乱雲 雲底高度 300m
全天の8割程度の雲 雲底高度 1220m
30日0時 KST ~ 30日1時 KST に徐々に
風向・風速南南西 3m/s
視程6000m
30日12時 KST ~ 30日13時 KST に徐々に
風向・風速西北西 4m/s
視程10km以上
TAF RKSI 282300Z 2900/3006 19006KT 6000 SCT030 TX32/2905Z TN25/2920Z TX32/3005Z
BECMG 2903/2904 29008KT 9999
TEMPO 2905/2907 6000 -SHRA SCT010CB BKN040
BECMG 2915/2916 21006KT 6000
BECMG 3003/3004 29008KT 9999